createdAt,value
2017-12-12T00:16:50.761Z,4.10
2017-12-12T00:19:20.244Z,4.08
2017-12-12T00:21:48.245Z,4.08
2017-12-12T00:24:28.069Z,4.09
2017-12-12T00:26:56.159Z,4.08
2017-12-12T00:29:24.104Z,4.10
2017-12-12T00:31:52.101Z,4.10
2017-12-12T00:34:22.736Z,4.11
2017-12-12T00:36:50.811Z,4.12
2017-12-12T00:39:18.816Z,4.12
2017-12-12T00:41:46.756Z,4.11
2017-12-12T00:44:14.625Z,4.11
2017-12-12T00:46:43.008Z,4.12
2017-12-12T00:49:17.848Z,4.14
2017-12-12T00:51:45.738Z,4.13
2017-12-12T00:54:15.297Z,4.11
2017-12-12T00:56:43.187Z,4.10
2017-12-12T00:59:17.709Z,4.10
2017-12-12T01:01:45.783Z,4.11
2017-12-12T01:04:13.753Z,4.13
2017-12-12T01:06:41.727Z,4.13
2017-12-12T01:09:09.704Z,4.14
2017-12-12T01:11:39.337Z,4.14
2017-12-12T01:14:07.394Z,4.13
2017-12-12T01:16:36.901Z,4.11
2017-12-12T01:19:04.873Z,4.13
2017-12-12T01:21:32.857Z,4.11
2017-12-12T01:24:01.461Z,4.12
2017-12-12T01:26:29.503Z,4.15
2017-12-12T01:28:57.683Z,4.18
2017-12-12T01:31:25.722Z,4.20
2017-12-12T01:33:53.623Z,4.20
2017-12-12T01:36:21.596Z,4.19
2017-12-12T01:38:49.570Z,4.19
2017-12-12T01:41:17.543Z,4.19
2017-12-12T01:43:45.418Z,4.21
2017-12-12T01:46:13.258Z,4.21
2017-12-12T01:48:43.053Z,4.23
2017-12-12T01:51:11.065Z,4.23
2017-12-12T01:53:38.937Z,4.21
2017-12-12T01:56:07.829Z,4.21
2017-12-12T01:58:36.213Z,4.20
2017-12-12T02:01:04.185Z,4.18
2017-12-12T02:03:32.821Z,4.21
2017-12-12T02:06:00.966Z,4.21
2017-12-12T02:08:33.579Z,4.21
2017-12-12T02:11:01.499Z,4.22
2017-12-12T02:13:29.470Z,4.25
2017-12-12T02:15:57.407Z,4.26
2017-12-12T02:18:28.282Z,4.27
2017-12-12T02:20:58.745Z,4.27
2017-12-12T02:23:26.799Z,4.27
2017-12-12T02:25:56.505Z,4.26
2017-12-12T02:28:24.677Z,4.25
2017-12-12T02:30:52.772Z,4.24
2017-12-12T02:33:20.935Z,4.23
2017-12-12T02:35:48.754Z,4.23
2017-12-12T02:38:16.625Z,4.21
2017-12-12T02:40:47.339Z,4.22
2017-12-12T02:43:16.715Z,4.23
2017-12-12T02:45:46.524Z,4.24
2017-12-12T02:48:14.509Z,4.24
2017-12-12T02:50:42.642Z,4.23
2017-12-12T02:53:10.546Z,4.21
2017-12-12T02:55:43.278Z,4.22
2017-12-12T02:58:11.301Z,4.23
2017-12-12T03:00:39.277Z,4.22
2017-12-12T03:03:09.097Z,4.23
2017-12-12T03:05:37.161Z,4.25
2017-12-12T03:08:05.018Z,4.26
2017-12-12T03:10:32.897Z,4.27
2017-12-12T03:13:01.349Z,4.27
2017-12-12T03:15:31.095Z,4.27
2017-12-12T03:17:59.059Z,4.27
2017-12-12T03:20:26.939Z,4.29
2017-12-12T03:22:56.383Z,4.28
2017-12-12T03:25:24.420Z,4.29
2017-12-12T03:27:52.406Z,4.29
2017-12-12T03:30:20.364Z,4.29
2017-12-12T03:32:48.952Z,4.28
2017-12-12T03:35:16.926Z,4.27
2017-12-12T03:37:44.890Z,4.26
2017-12-12T03:40:14.723Z,4.26
2017-12-12T03:42:42.580Z,4.27
2017-12-12T03:45:10.462Z,4.29
2017-12-12T03:47:38.607Z,4.30
2017-12-12T03:50:11.274Z,4.30
2017-12-12T03:52:39.484Z,4.30
2017-12-12T03:55:07.467Z,4.31
2017-12-12T03:57:37.179Z,4.35
2017-12-12T04:00:05.062Z,4.37
2017-12-12T04:02:41.183Z,4.40
2017-12-12T04:05:11.943Z,4.43
2017-12-12T04:07:42.430Z,4.45
2017-12-12T04:10:10.453Z,4.46
2017-12-12T04:12:41.079Z,4.45
2017-12-12T04:15:09.462Z,4.43
2017-12-12T04:17:37.343Z,4.44
2017-12-12T04:20:05.243Z,4.49
2017-12-12T04:22:33.272Z,4.49
2017-12-12T04:25:01.349Z,4.49
2017-12-12T04:27:31.268Z,4.47
2017-12-12T04:29:59.339Z,4.46
2017-12-12T04:32:27.310Z,4.46
2017-12-12T04:34:56.324Z,4.44
2017-12-12T04:37:27.861Z,4.42
2017-12-12T04:39:55.834Z,4.40
2017-12-12T04:42:29.404Z,4.39
2017-12-12T04:44:57.406Z,4.34
2017-12-12T04:47:25.382Z,4.32
2017-12-12T04:49:53.452Z,4.31
2017-12-12T04:52:23.278Z,4.30
2017-12-12T04:54:52.309Z,4.30
2017-12-12T04:57:20.235Z,4.32
2017-12-12T04:59:48.208Z,4.36
2017-12-12T05:02:17.865Z,4.38
2017-12-12T05:04:45.986Z,4.43
2017-12-12T05:07:16.468Z,4.44
2017-12-12T05:09:44.405Z,4.44
2017-12-12T05:12:12.375Z,4.44
2017-12-12T05:14:40.258Z,4.47
2017-12-12T05:17:09.928Z,4.50
2017-12-12T05:19:38.028Z,4.54
2017-12-12T05:22:06.012Z,4.53
2017-12-12T05:24:35.630Z,4.52
2017-12-12T05:27:03.696Z,4.55
2017-12-12T05:29:34.295Z,4.56
2017-12-12T05:32:02.394Z,4.57
2017-12-12T05:34:30.372Z,4.63
2017-12-12T05:36:58.647Z,4.64
2017-12-12T05:39:26.620Z,4.64
2017-12-12T05:41:54.596Z,4.62
2017-12-12T05:44:22.706Z,4.66
2017-12-12T05:46:50.541Z,4.70
2017-12-12T05:49:18.676Z,4.72
2017-12-12T05:51:46.792Z,4.79
2017-12-12T05:54:14.762Z,4.81
2017-12-12T05:56:42.733Z,4.82
2017-12-12T05:59:10.572Z,4.81
2017-12-12T06:01:38.582Z,4.82
2017-12-12T06:04:06.540Z,4.84
2017-12-12T06:06:34.424Z,4.84
2017-12-12T06:09:02.363Z,4.85
2017-12-12T06:11:30.270Z,4.85
2017-12-12T06:13:58.236Z,4.84
2017-12-12T06:16:26.264Z,4.79
2017-12-12T06:18:54.914Z,4.74
2017-12-12T06:21:22.872Z,4.71
2017-12-12T06:23:50.747Z,4.69
2017-12-12T06:26:19.284Z,4.66
2017-12-12T06:28:47.210Z,4.63
2017-12-12T06:31:15.087Z,4.59
2017-12-12T06:33:44.591Z,4.55
2017-12-12T06:36:12.655Z,4.52
2017-12-12T06:38:40.735Z,4.48
2017-12-12T06:41:08.602Z,4.46
2017-12-12T06:43:38.442Z,4.46
2017-12-12T06:46:06.487Z,4.43
2017-12-12T06:48:34.358Z,4.39
2017-12-12T06:51:02.243Z,4.32
2017-12-12T06:53:30.106Z,4.31
2017-12-12T06:55:58.109Z,4.32
2017-12-12T06:58:28.199Z,4.27
2017-12-12T07:00:56.166Z,4.28
2017-12-12T07:03:24.138Z,4.25
2017-12-12T07:05:57.882Z,4.29
2017-12-12T07:08:25.922Z,4.22
2017-12-12T07:10:53.895Z,4.19
2017-12-12T07:13:23.392Z,4.14
2017-12-12T07:15:51.376Z,4.10
2017-12-12T07:18:19.342Z,4.03
2017-12-12T07:20:47.312Z,4.00
2017-12-12T07:23:16.311Z,3.98
2017-12-12T07:25:45.100Z,4.01
2017-12-12T07:28:13.176Z,3.98
2017-12-12T07:30:40.987Z,3.99
2017-12-12T07:33:13.453Z,3.96
2017-12-12T07:35:41.360Z,3.90
2017-12-12T07:38:09.369Z,3.90
2017-12-12T07:40:37.382Z,3.86
2017-12-12T07:43:05.422Z,3.83
2017-12-12T07:45:33.573Z,3.78
2017-12-12T07:48:01.517Z,3.73
2017-12-12T07:50:32.038Z,3.68
2017-12-12T07:53:01.877Z,3.68
2017-12-12T07:55:30.090Z,3.61
2017-12-12T07:58:00.244Z,3.59
2017-12-12T08:00:38.957Z,3.58
2017-12-12T08:03:08.665Z,3.57
2017-12-12T08:05:36.719Z,3.56
2017-12-12T08:08:04.795Z,3.57
2017-12-12T08:10:37.510Z,3.54
2017-12-12T08:13:07.023Z,3.51
2017-12-12T08:15:35.057Z,3.50
2017-12-12T08:18:03.027Z,3.51
2017-12-12T08:20:31.102Z,3.49
2017-12-12T08:23:00.739Z,3.49
2017-12-12T08:25:28.821Z,3.49
2017-12-12T08:27:56.856Z,3.48
2017-12-12T08:30:24.838Z,3.47
2017-12-12T08:32:55.875Z,3.44
2017-12-12T08:35:30.365Z,3.47
2017-12-12T08:37:58.311Z,3.49
2017-12-12T08:40:27.781Z,3.57
2017-12-12T08:42:55.755Z,3.58
2017-12-12T08:45:23.569Z,3.56
2017-12-12T08:47:51.597Z,3.57
2017-12-12T08:50:19.532Z,3.59
2017-12-12T08:52:47.594Z,3.61
2017-12-12T08:55:16.639Z,3.61
2017-12-12T08:57:44.604Z,3.63
2017-12-12T09:00:16.775Z,3.64
2017-12-12T09:02:46.257Z,3.64
2017-12-12T09:05:14.973Z,3.63
2017-12-12T09:07:42.877Z,3.63
2017-12-12T09:10:11.581Z,3.64
2017-12-12T09:12:43.215Z,3.65
2017-12-12T09:15:11.880Z,3.69
2017-12-12T09:17:40.051Z,3.73
2017-12-12T09:20:08.035Z,3.83
2017-12-12T09:22:37.647Z,3.87
2017-12-12T09:25:07.306Z,3.85
2017-12-12T09:27:35.531Z,3.81
2017-12-12T09:30:03.469Z,3.86
2017-12-12T09:32:31.469Z,3.89
2017-12-12T09:34:59.441Z,3.88
2017-12-12T09:37:27.314Z,3.86
2017-12-12T09:39:55.119Z,3.86
2017-12-12T09:42:23.172Z,3.84
2017-12-12T09:44:51.083Z,3.88
2017-12-12T09:47:19.021Z,3.92
2017-12-12T09:49:47.050Z,3.98
2017-12-12T09:52:15.949Z,4.07
2017-12-12T09:54:44.047Z,4.14
2017-12-12T09:57:14.132Z,4.16
2017-12-12T09:59:42.141Z,4.18
2017-12-12T10:02:10.205Z,4.20
2017-12-12T10:04:38.913Z,4.25
2017-12-12T10:07:06.792Z,4.26
2017-12-12T10:09:36.282Z,4.24
2017-12-12T10:12:10.927Z,4.17
2017-12-12T10:14:42.666Z,4.09
2017-12-12T10:17:10.540Z,4.00
2017-12-12T10:19:38.409Z,3.96
2017-12-12T10:22:06.223Z,3.93
2017-12-12T10:24:34.469Z,3.90
2017-12-12T10:27:02.440Z,3.85
2017-12-12T10:29:30.415Z,3.89
2017-12-12T10:31:58.489Z,3.92
2017-12-12T10:34:28.995Z,3.91
2017-12-12T10:36:58.594Z,3.89
2017-12-12T10:39:28.353Z,3.91
2017-12-12T10:41:56.320Z,3.94
2017-12-12T10:44:24.390Z,3.96
2017-12-12T10:46:53.181Z,3.95
2017-12-12T10:49:21.222Z,3.92
2017-12-12T10:51:49.327Z,3.92
2017-12-12T10:54:17.299Z,3.98
2017-12-12T10:56:46.101Z,4.05
2017-12-12T10:59:14.169Z,4.08
2017-12-12T11:01:43.862Z,4.12
2017-12-12T11:04:24.439Z,4.09
2017-12-12T11:06:52.410Z,4.17
2017-12-12T11:09:21.077Z,4.30
2017-12-12T11:11:49.006Z,4.42
2017-12-12T11:14:16.911Z,4.44
2017-12-12T11:16:49.150Z,4.41
2017-12-12T11:19:17.710Z,4.39
2017-12-12T11:21:45.660Z,4.36
2017-12-12T11:24:16.770Z,4.37
2017-12-12T11:26:45.012Z,4.37
2017-12-12T11:29:14.542Z,4.30
2017-12-12T11:31:44.404Z,4.26
2017-12-12T11:34:17.760Z,4.25
2017-12-12T11:36:45.910Z,4.20
2017-12-12T11:39:13.894Z,4.19
2017-12-12T11:41:41.966Z,4.20
2017-12-12T11:44:11.182Z,4.20
2017-12-12T11:46:39.106Z,4.20
2017-12-12T11:49:07.858Z,4.17
2017-12-12T11:51:36.512Z,4.14
2017-12-12T11:54:08.128Z,4.11
2017-12-12T11:56:36.250Z,4.07
2017-12-12T11:59:04.230Z,4.05
2017-12-12T12:01:32.194Z,4.07
2017-12-12T12:04:00.080Z,4.06
2017-12-12T12:06:28.144Z,4.06
2017-12-12T12:08:56.115Z,4.06
2017-12-12T12:11:25.396Z,4.06
2017-12-12T12:13:55.020Z,4.03
2017-12-12T12:16:23.110Z,4.00
2017-12-12T12:18:51.218Z,3.99
2017-12-12T12:21:19.374Z,3.97
2017-12-12T12:23:47.452Z,3.95
2017-12-12T12:26:17.038Z,3.97
2017-12-12T12:28:47.784Z,3.97
2017-12-12T12:31:15.851Z,3.96
2017-12-12T12:33:44.534Z,3.94
2017-12-12T12:38:48.163Z,3.97
2017-12-12T12:41:25.564Z,3.96
2017-12-12T12:43:53.527Z,3.88
2017-12-12T12:46:21.598Z,3.88
2017-12-12T12:48:50.488Z,3.86
2017-12-12T12:51:24.858Z,3.83
2017-12-12T12:53:52.728Z,3.76
2017-12-12T12:56:20.766Z,3.68
2017-12-12T12:58:48.827Z,3.68
2017-12-12T13:01:17.524Z,3.63
2017-12-12T13:03:45.598Z,3.57
2017-12-12T13:08:51.244Z,3.53
2017-12-12T13:11:22.169Z,3.52
2017-12-12T13:13:51.230Z,3.51
2017-12-12T13:16:19.172Z,3.51
2017-12-12T13:18:47.354Z,3.44
2017-12-12T13:21:16.914Z,3.45
2017-12-12T13:23:44.938Z,3.43
2017-12-12T13:26:14.546Z,3.39
2017-12-12T13:28:42.620Z,3.40
2017-12-12T13:31:10.688Z,3.39
2017-12-12T13:33:41.102Z,3.37
2017-12-12T13:36:09.207Z,3.37
2017-12-12T13:38:37.172Z,3.39
2017-12-12T13:41:05.140Z,3.36
2017-12-12T13:43:33.032Z,3.34
2017-12-12T13:46:01.081Z,3.34
2017-12-12T13:48:29.055Z,3.34
2017-12-12T13:50:57.029Z,3.32
2017-12-12T13:53:26.618Z,3.30
2017-12-12T13:55:54.713Z,3.26
2017-12-12T13:58:22.587Z,3.24
2017-12-12T14:00:53.262Z,3.24
2017-12-12T14:03:22.146Z,3.24
2017-12-12T14:05:50.358Z,3.24
2017-12-12T14:08:18.364Z,3.21
2017-12-12T14:10:47.984Z,3.18
2017-12-12T14:13:18.097Z,3.16
2017-12-12T14:15:46.167Z,3.12
2017-12-12T14:18:14.043Z,3.08
2017-12-12T14:20:42.113Z,3.05
2017-12-12T14:23:10.094Z,3.02
2017-12-12T14:25:38.269Z,2.97
2017-12-12T14:28:21.867Z,2.93
2017-12-12T14:30:50.053Z,2.90
2017-12-12T14:33:19.651Z,2.83
2017-12-12T14:35:47.728Z,2.80
2017-12-12T14:38:18.222Z,2.76
2017-12-12T14:40:49.949Z,2.76
2017-12-12T14:43:18.635Z,2.73
2017-12-12T14:45:46.607Z,2.70
2017-12-12T14:48:16.169Z,2.66
2017-12-12T14:50:44.205Z,2.66
2017-12-12T14:53:14.013Z,2.62
2017-12-12T14:55:41.990Z,2.60
2017-12-12T14:58:12.694Z,2.58
2017-12-12T15:00:40.890Z,2.53
2017-12-12T15:03:14.399Z,2.54
2017-12-12T15:05:44.206Z,2.54
2017-12-12T15:08:12.178Z,2.56
2017-12-12T15:10:41.786Z,2.56
2017-12-12T15:13:09.868Z,2.55
2017-12-12T15:15:39.477Z,2.55
2017-12-12T15:18:09.199Z,2.53
2017-12-12T15:20:37.296Z,2.53
2017-12-12T15:23:05.137Z,2.54
2017-12-12T15:25:34.532Z,2.53
2017-12-12T15:28:02.512Z,2.55
2017-12-12T15:30:30.594Z,2.56
2017-12-12T15:32:58.559Z,2.56
2017-12-12T15:35:26.528Z,2.54
2017-12-12T15:37:54.504Z,2.55
2017-12-12T15:42:56.283Z,2.54
2017-12-12T15:45:25.189Z,2.49
2017-12-12T15:47:53.145Z,2.51
2017-12-12T15:50:30.839Z,2.51
2017-12-12T15:52:59.523Z,2.49
2017-12-12T15:55:27.351Z,2.51
2017-12-12T15:57:57.856Z,2.51
2017-12-12T16:00:26.539Z,2.51
2017-12-12T16:02:54.414Z,2.51
2017-12-12T16:05:25.338Z,2.50
2017-12-12T16:07:54.427Z,2.48
2017-12-12T16:10:22.609Z,2.46
2017-12-12T16:12:50.575Z,2.46
2017-12-12T16:15:24.578Z,2.43
2017-12-12T16:17:52.965Z,2.42
2017-12-12T16:20:23.507Z,2.41
2017-12-12T16:22:52.744Z,2.40
2017-12-12T16:25:23.667Z,2.43
2017-12-12T16:27:52.641Z,2.43
2017-12-12T16:30:20.608Z,2.42
2017-12-12T16:32:48.579Z,2.42
2017-12-12T16:35:16.674Z,2.42
2017-12-12T16:37:46.346Z,2.42
2017-12-12T16:40:14.452Z,2.41
2017-12-12T16:42:42.329Z,2.42
2017-12-12T16:45:13.055Z,2.42
2017-12-12T16:47:42.273Z,2.40
2017-12-12T16:50:14.787Z,2.40
2017-12-12T16:52:43.167Z,2.39
2017-12-12T16:55:11.146Z,2.37
2017-12-12T16:57:39.209Z,2.34
2017-12-12T17:00:08.717Z,2.34
2017-12-12T17:02:36.791Z,2.36
2017-12-12T17:05:04.874Z,2.38
2017-12-12T17:07:34.559Z,2.39
2017-12-12T17:10:02.455Z,2.39
2017-12-12T17:12:30.842Z,2.39
2017-12-12T17:14:58.805Z,2.41
2017-12-12T17:17:28.698Z,2.41
2017-12-12T17:19:57.103Z,2.42
2017-12-12T17:22:34.399Z,2.42
2017-12-12T17:25:04.020Z,2.41
2017-12-12T17:27:33.061Z,2.41
2017-12-12T17:30:01.174Z,2.40
2017-12-12T17:32:29.274Z,2.42
2017-12-12T17:35:00.083Z,2.42
2017-12-12T17:37:29.785Z,2.40
2017-12-12T17:39:57.836Z,2.40
2017-12-12T17:42:25.954Z,2.39
2017-12-12T17:44:55.582Z,2.39
2017-12-12T17:47:23.563Z,2.39
2017-12-12T17:49:51.720Z,2.40
2017-12-12T17:52:20.608Z,2.40
2017-12-12T17:54:48.630Z,2.39
2017-12-12T17:57:24.238Z,2.40
2017-12-12T17:59:56.704Z,2.40
2017-12-12T18:02:25.833Z,2.40
2017-12-12T18:06:34.585Z,2.37
2017-12-12T18:09:02.663Z,2.36
2017-12-12T18:11:30.712Z,2.34
2017-12-12T18:14:01.230Z,2.35
2017-12-12T18:16:30.155Z,2.33
2017-12-12T18:20:09.858Z,2.33
2017-12-12T18:22:40.902Z,2.32
2017-12-12T18:27:41.556Z,2.31
2017-12-12T18:30:09.539Z,2.30
2017-12-12T18:32:37.509Z,2.30
2017-12-12T18:35:05.656Z,2.27
2017-12-12T18:37:35.662Z,2.27
